createdAt,value
2022-09-01T00:00:50.235Z,25
2022-09-01T00:03:22.982Z,22
2022-09-01T00:05:55.943Z,24
2022-09-01T00:08:28.885Z,27
2022-09-01T00:11:01.793Z,28
2022-09-01T00:13:34.620Z,25
2022-09-01T00:16:07.748Z,24
2022-09-01T00:18:40.570Z,24
2022-09-01T00:21:13.172Z,21
2022-09-01T00:23:45.675Z,24
2022-09-01T00:26:18.123Z,25
2022-09-01T00:28:50.771Z,28
2022-09-01T00:31:24.018Z,20
2022-09-01T00:33:55.827Z,24
2022-09-01T00:36:28.362Z,24
2022-09-01T00:39:04.245Z,24
2022-09-01T00:41:36.915Z,24
2022-09-01T00:44:09.408Z,24
2022-09-01T00:46:55.038Z,21
2022-09-01T00:49:27.119Z,24
2022-09-01T00:51:59.531Z,24
2022-09-01T00:54:32.311Z,22
2022-09-01T00:57:04.859Z,23
2022-09-01T00:59:37.615Z,24
2022-09-01T01:02:08.909Z,24
2022-09-01T01:04:41.068Z,24
2022-09-01T01:07:13.969Z,25
2022-09-01T01:09:46.415Z,25
2022-09-01T01:12:19.230Z,24
2022-09-01T01:14:51.762Z,28
2022-09-01T01:17:24.555Z,21
2022-09-01T01:23:01.841Z,28
2022-09-01T01:25:35.003Z,24
2022-09-01T01:28:07.589Z,24
2022-09-01T01:30:40.296Z,28
2022-09-01T01:33:12.783Z,24
2022-09-01T01:35:45.650Z,24
2022-09-01T01:38:18.950Z,24
2022-09-01T01:40:54.100Z,28
2022-09-01T01:43:26.601Z,28
2022-09-01T01:45:59.303Z,25
2022-09-01T01:48:31.662Z,26
2022-09-01T01:51:04.307Z,26
2022-09-01T01:53:39.907Z,24
2022-09-01T01:56:12.125Z,26
2022-09-01T01:58:43.406Z,24
2022-09-01T02:01:15.762Z,28
2022-09-01T02:03:48.909Z,24
2022-09-01T02:06:19.612Z,27
2022-09-01T02:08:52.711Z,25
2022-09-01T02:11:26.030Z,24
2022-09-01T02:13:58.737Z,24
2022-09-01T02:16:31.406Z,20
2022-09-01T02:19:02.644Z,23
2022-09-01T02:21:35.308Z,24
2022-09-01T02:24:08.124Z,27
2022-09-01T02:26:41.008Z,25
2022-09-01T02:29:14.809Z,20
2022-09-01T02:31:47.319Z,24
2022-09-01T02:34:20.282Z,24
2022-09-01T02:36:54.078Z,28
2022-09-01T02:39:26.682Z,24
2022-09-01T02:41:59.333Z,24
2022-09-01T02:44:31.809Z,24
2022-09-01T02:47:04.767Z,28
2022-09-01T02:49:37.711Z,27
2022-09-01T02:52:14.057Z,28
2022-09-01T02:54:46.300Z,25
2022-09-01T02:57:18.260Z,28
2022-09-01T02:59:50.429Z,25
2022-09-01T03:02:22.669Z,29
2022-09-01T03:04:55.595Z,27
2022-09-01T03:07:28.205Z,28
2022-09-01T03:10:00.664Z,28
2022-09-01T03:12:33.393Z,28
2022-09-01T03:15:09.209Z,24
2022-09-01T03:17:44.156Z,28
2022-09-01T03:20:16.719Z,28
2022-09-01T03:22:49.259Z,23
2022-09-01T03:25:21.959Z,24
2022-09-01T03:27:54.284Z,26
2022-09-01T03:30:26.899Z,33
2022-09-01T03:32:59.164Z,36
2022-09-01T03:35:32.008Z,32
2022-09-01T03:38:04.525Z,32
2022-09-01T03:40:37.457Z,32
2022-09-01T03:43:09.868Z,32
2022-09-01T03:45:42.808Z,33
2022-09-01T03:48:15.237Z,37
2022-09-01T03:50:47.664Z,36
2022-09-01T03:53:20.344Z,32
2022-09-01T03:55:53.445Z,32
2022-09-01T03:58:26.807Z,32
2022-09-01T04:00:59.331Z,31
2022-09-01T04:03:32.079Z,29
2022-09-01T04:06:05.158Z,32
2022-09-01T04:08:37.940Z,28
2022-09-01T04:11:11.111Z,31
2022-09-01T04:13:44.128Z,31
2022-09-01T04:16:16.955Z,28
2022-09-01T04:18:49.563Z,30
2022-09-01T04:21:22.446Z,28
2022-09-01T04:23:55.411Z,31
2022-09-01T04:26:28.359Z,32
2022-09-01T04:29:04.362Z,30
2022-09-01T04:31:37.563Z,32
2022-09-01T04:34:10.750Z,32
2022-09-01T04:36:43.820Z,32
2022-09-01T04:39:17.043Z,32
2022-09-01T04:41:50.464Z,35
2022-09-01T04:44:23.757Z,33
2022-09-01T04:46:56.817Z,33
2022-09-01T04:49:29.375Z,36
2022-09-01T04:52:02.671Z,34
2022-09-01T04:54:36.227Z,36
2022-09-01T04:57:09.583Z,36
2022-09-01T04:59:42.905Z,36
2022-09-01T05:02:16.262Z,32
2022-09-01T05:04:49.481Z,38
2022-09-01T05:07:22.207Z,33
2022-09-01T05:10:01.340Z,39
2022-09-01T05:12:33.369Z,36
2022-09-01T05:15:05.978Z,36
2022-09-01T05:17:37.207Z,35
2022-09-01T05:20:10.325Z,36
2022-09-01T05:22:43.287Z,36
2022-09-01T05:25:16.274Z,36
2022-09-01T05:27:49.362Z,36
2022-09-01T05:30:22.613Z,36
2022-09-01T05:32:56.146Z,36
2022-09-01T05:35:33.342Z,36
2022-09-01T05:38:04.841Z,36
2022-09-01T05:40:38.223Z,31
2022-09-01T05:43:11.653Z,32
2022-09-01T05:46:07.156Z,30
2022-09-01T05:48:38.182Z,31
2022-09-01T05:51:50.599Z,32
2022-09-01T05:54:21.579Z,28
2022-09-01T05:56:55.421Z,32
2022-09-01T05:59:28.855Z,32
2022-09-01T06:02:02.264Z,32
2022-09-01T06:04:35.745Z,42
2022-09-01T06:07:11.803Z,31
2022-09-01T06:09:47.779Z,32
2022-09-01T06:12:20.549Z,31
2022-09-01T06:14:53.430Z,28
2022-09-01T06:17:26.601Z,32
2022-09-01T06:19:59.847Z,28
2022-09-01T06:22:33.324Z,32
2022-09-01T06:25:06.478Z,28
2022-09-01T06:27:39.263Z,32
2022-09-01T06:30:12.139Z,28
2022-09-01T06:32:45.645Z,28
2022-09-01T06:35:18.378Z,24
2022-09-01T06:37:51.610Z,24
2022-09-01T06:40:24.681Z,25
2022-09-01T06:42:58.028Z,24
2022-09-01T06:45:33.888Z,28
2022-09-01T06:48:05.949Z,28
2022-09-01T06:51:18.238Z,28
2022-09-01T06:53:52.203Z,32
2022-09-01T06:56:32.102Z,31
2022-09-01T06:59:03.803Z,28
2022-09-01T07:01:40.097Z,24
2022-09-01T07:04:13.881Z,20
2022-09-01T07:08:05.042Z,16
2022-09-01T07:12:07.108Z,15
2022-09-01T07:16:30.336Z,15
2022-09-01T07:45:59.307Z,12
2022-09-01T07:50:11.302Z,15
2022-09-01T07:54:06.941Z,12
2022-09-01T07:56:40.858Z,16
2022-09-01T07:59:15.792Z,12
2022-09-01T08:01:46.893Z,12
2022-09-01T08:04:19.996Z,12
2022-09-01T08:06:53.191Z,8
2022-09-01T08:09:37.900Z,14
2022-09-01T08:12:15.012Z,12
2022-09-01T08:14:47.375Z,12
2022-09-01T08:17:52.148Z,12
2022-09-01T08:20:24.052Z,12
2022-09-01T08:22:57.144Z,11
2022-09-01T08:25:30.056Z,12
2022-09-01T08:28:03.242Z,8
2022-09-01T08:30:36.208Z,12
2022-09-01T08:33:12.116Z,8
2022-09-01T08:35:43.821Z,16
2022-09-01T08:38:16.286Z,16
2022-09-01T08:40:49.431Z,12
2022-09-01T08:43:26.983Z,16
2022-09-01T08:45:59.102Z,16
2022-09-01T08:52:16.002Z,20
2022-09-01T08:54:48.345Z,21
2022-09-01T08:57:20.925Z,22
2022-09-01T08:59:53.866Z,18
2022-09-01T09:02:27.664Z,24
2022-09-01T09:05:00.431Z,32
2022-09-01T09:07:32.982Z,20
2022-09-01T09:10:05.941Z,16
2022-09-01T09:12:49.579Z,16
2022-09-01T09:15:20.665Z,16
2022-09-01T09:18:00.239Z,15
2022-09-01T09:20:33.239Z,12
2022-09-01T09:23:06.221Z,16
2022-09-01T09:25:39.083Z,14
2022-09-01T09:28:12.875Z,12
2022-09-01T09:30:44.719Z,12
2022-09-01T09:33:52.561Z,12
2022-09-01T09:36:25.894Z,16
2022-09-01T09:38:58.404Z,8
2022-09-01T09:41:34.251Z,16
2022-09-01T09:44:11.624Z,17
2022-09-01T09:46:44.423Z,16
2022-09-01T09:49:17.530Z,24
2022-09-01T09:52:05.168Z,20
2022-09-01T09:54:38.775Z,19
2022-09-01T09:57:11.759Z,24
2022-09-01T10:00:01.806Z,24
2022-09-01T10:02:32.517Z,24
2022-09-01T10:05:06.240Z,18
2022-09-01T10:07:38.877Z,20
2022-09-01T10:10:13.211Z,21
2022-09-01T10:12:46.390Z,20
2022-09-01T10:15:19.362Z,24
2022-09-01T10:17:52.109Z,23
2022-09-01T10:21:02.214Z,20
2022-09-01T10:23:36.908Z,20
2022-09-01T10:26:13.782Z,20
2022-09-01T10:28:50.963Z,16
2022-09-01T10:31:33.030Z,19
2022-09-01T10:34:05.885Z,18
2022-09-01T10:36:38.647Z,19
2022-09-01T10:39:10.476Z,21
2022-09-01T10:41:43.411Z,24
2022-09-01T10:44:16.663Z,20
2022-09-01T10:46:52.382Z,24
2022-09-01T10:49:38.086Z,24
2022-09-01T10:52:16.252Z,17
2022-09-01T10:54:55.953Z,25
2022-09-01T10:57:30.483Z,27
2022-09-01T11:00:03.720Z,28
2022-09-01T11:03:31.676Z,24
2022-09-01T11:06:22.402Z,24
2022-09-01T11:08:55.999Z,24
2022-09-01T11:11:30.010Z,30
2022-09-01T11:14:03.215Z,22
2022-09-01T11:16:52.107Z,25
2022-09-01T11:19:27.801Z,24
2022-09-01T11:21:59.339Z,28
2022-09-01T11:24:32.560Z,28
2022-09-01T11:27:05.660Z,24
2022-09-01T11:29:38.748Z,28
2022-09-01T11:32:15.610Z,28
2022-09-01T11:34:50.646Z,28
2022-09-01T11:37:23.003Z,28
2022-09-01T11:39:58.703Z,25
2022-09-01T11:42:32.065Z,26
2022-09-01T11:45:05.894Z,25
2022-09-01T11:47:38.999Z,27
2022-09-01T11:50:12.114Z,22
2022-09-01T11:52:45.144Z,28
2022-09-01T11:55:18.041Z,28
2022-09-01T11:57:50.299Z,27
2022-09-01T12:00:23.020Z,24
2022-09-01T12:02:54.959Z,24
2022-09-01T12:05:28.128Z,28
2022-09-01T12:08:01.073Z,24
2022-09-01T12:10:33.068Z,28
2022-09-01T12:13:05.567Z,28
2022-09-01T12:15:55.184Z,25
2022-09-01T12:18:49.663Z,27
2022-09-01T12:21:22.208Z,21
2022-09-01T12:23:54.894Z,28
2022-09-01T12:26:27.451Z,29
2022-09-01T12:28:59.927Z,32
2022-09-01T12:31:32.894Z,28
2022-09-01T12:34:06.666Z,28
2022-09-01T12:36:39.343Z,31
2022-09-01T12:39:12.179Z,28
2022-09-01T12:41:45.006Z,28
2022-09-01T12:44:17.920Z,27
2022-09-01T12:46:50.515Z,28
2022-09-01T12:49:23.069Z,28
2022-09-01T12:51:55.884Z,28
2022-09-01T12:54:28.896Z,28
2022-09-01T12:57:02.153Z,28
2022-09-01T12:59:37.777Z,28
2022-09-01T13:02:09.944Z,28
2022-09-01T13:04:43.220Z,28
2022-09-01T13:07:15.591Z,28
2022-09-01T13:09:47.985Z,28
2022-09-01T13:12:20.070Z,32
2022-09-01T13:14:52.585Z,32
2022-09-01T13:17:25.226Z,28
2022-09-01T13:19:57.839Z,32
2022-09-01T13:22:30.320Z,32
2022-09-01T13:25:03.641Z,28
2022-09-01T13:27:36.365Z,32
2022-09-01T13:30:08.809Z,28
2022-09-01T13:33:20.523Z,29
2022-09-01T13:36:53.920Z,28
2022-09-01T13:39:25.830Z,28
2022-09-01T13:41:57.867Z,31
2022-09-01T13:44:31.060Z,34
2022-09-01T13:47:33.910Z,32
2022-09-01T13:50:11.708Z,31
2022-09-01T13:53:43.317Z,28
2022-09-01T13:56:15.973Z,28
2022-09-01T13:58:48.546Z,31
2022-09-01T14:01:20.378Z,28
2022-09-01T14:04:00.334Z,28
2022-09-01T14:06:32.069Z,28
2022-09-01T14:09:04.926Z,28
2022-09-01T14:11:37.194Z,28
2022-09-01T14:14:10.489Z,28
2022-09-01T14:16:43.276Z,28
2022-09-01T14:19:15.126Z,28
2022-09-01T14:21:48.603Z,32
2022-09-01T14:24:20.853Z,28
2022-09-01T14:26:53.591Z,28
2022-09-01T14:29:26.267Z,32
2022-09-01T14:31:58.619Z,28
2022-09-01T14:34:31.301Z,33
2022-09-01T14:37:03.965Z,31
2022-09-01T14:39:36.460Z,35
2022-09-01T14:42:08.866Z,29
2022-09-01T14:44:41.137Z,28
2022-09-01T14:47:21.179Z,31
2022-09-01T14:49:51.677Z,28
2022-09-01T14:52:23.956Z,24
2022-09-01T14:54:56.687Z,28
2022-09-01T14:57:38.631Z,24
2022-09-01T15:00:09.344Z,24
2022-09-01T15:02:41.894Z,28
2022-09-01T15:05:15.002Z,28
2022-09-01T15:07:47.206Z,24
2022-09-01T20:21:57.695Z,26
2022-09-01T20:24:28.639Z,28
2022-09-01T20:27:00.455Z,28
2022-09-01T20:29:34.832Z,20
2022-09-01T20:32:07.261Z,21
2022-09-01T20:34:39.864Z,20
2022-09-01T20:37:12.295Z,26
2022-09-01T20:39:44.944Z,20
2022-09-01T20:42:17.441Z,24
2022-09-01T20:44:50.029Z,21
2022-09-01T20:47:22.703Z,27
2022-09-01T20:49:55.208Z,28
2022-09-01T20:52:27.644Z,24
2022-09-01T20:55:00.185Z,24
2022-09-01T20:57:34.120Z,21
2022-09-01T21:00:07.032Z,28
2022-09-01T21:02:39.743Z,27
2022-09-01T21:05:12.550Z,26
2022-09-01T21:07:45.207Z,25
2022-09-01T21:10:17.788Z,27
2022-09-01T21:12:50.362Z,23
2022-09-01T21:15:22.816Z,26
2022-09-01T21:17:55.456Z,25
2022-09-01T21:20:28.121Z,24
2022-09-01T21:23:07.120Z,28
2022-09-01T21:25:41.288Z,28
2022-09-01T21:28:14.037Z,24
2022-09-01T21:30:46.727Z,28
2022-09-01T21:33:19.635Z,28
2022-09-01T21:35:52.161Z,28
2022-09-01T21:38:24.552Z,24
2022-09-01T21:40:56.922Z,24
2022-09-01T21:43:29.148Z,24
2022-09-01T21:46:01.752Z,27
2022-09-01T21:48:34.641Z,29
2022-09-01T21:51:06.738Z,28
2022-09-01T21:53:39.283Z,27
2022-09-01T21:56:11.604Z,24
2022-09-01T21:58:50.369Z,26
2022-09-01T22:01:22.050Z,24
2022-09-01T22:03:54.820Z,28
2022-09-01T22:06:27.152Z,28
2022-09-01T22:08:59.267Z,27
2022-09-01T22:11:31.804Z,28
2022-09-01T22:14:04.642Z,24
2022-09-01T22:16:37.373Z,26
2022-09-01T22:19:09.625Z,20
2022-09-01T22:21:41.935Z,24
2022-09-01T22:24:19.622Z,21
2022-09-01T22:26:51.432Z,26
2022-09-01T22:29:23.925Z,24
2022-09-01T22:31:56.866Z,24
2022-09-01T22:34:28.944Z,25
2022-09-01T22:37:01.538Z,24
2022-09-01T22:39:34.478Z,20
2022-09-01T22:42:07.219Z,20
2022-09-01T22:44:39.763Z,21
2022-09-01T22:47:13.681Z,23
2022-09-01T22:49:46.271Z,24
2022-09-01T22:52:18.864Z,25
2022-09-01T22:54:52.591Z,20
2022-09-01T22:57:24.697Z,20
2022-09-01T22:59:57.723Z,24
2022-09-01T23:02:29.282Z,27
2022-09-01T23:05:02.460Z,20
2022-09-01T23:07:40.031Z,22
2022-09-01T23:10:11.698Z,24
2022-09-01T23:12:45.007Z,23
2022-09-01T23:15:17.211Z,24
2022-09-01T23:17:49.926Z,18
2022-09-01T23:20:23.128Z,20
2022-09-01T23:22:55.926Z,20
2022-09-01T23:25:29.115Z,24
2022-09-01T23:28:01.847Z,20
2022-09-01T23:30:34.568Z,21
2022-09-01T23:33:07.366Z,20
2022-09-01T23:35:39.979Z,20
2022-09-01T23:38:12.620Z,20
2022-09-01T23:40:45.517Z,16
2022-09-01T23:43:18.529Z,16
2022-09-01T23:45:51.500Z,16
2022-09-01T23:48:24.557Z,16
2022-09-01T23:50:56.987Z,16
2022-09-01T23:53:29.982Z,16
2022-09-01T23:56:02.769Z,16
2022-09-01T23:58:35.626Z,13
